sensor_id;sensor_type;location;lat;lon;timestamp;pressure;altitude;pressure_sealevel;temperature;humidity
73551;BME280;61816;53.582;10.096;2023-04-10T00:01:28;54407.69;;;-144.73;100.00
73551;BME280;61816;53.582;10.096;2023-04-10T00:03:59;54448.75;;;-144.73;100.00
73551;BME280;61816;53.582;10.096;2023-04-10T00:06:25;54424.13;;;-144.73;100.00
73551;BME280;61816;53.582;10.096;2023-04-10T00:08:52;54428.22;;;-144.73;100.00
73551;BME280;61816;53.582;10.096;2023-04-10T00:11:18;54432.31;;;-144.73;100.00
73551;BME280;61816;53.582;10.096;2023-04-10T00:13:43;54436.44;;;-144.73;100.00
73551;BME280;61816;53.582;10.096;2023-04-10T00:16:09;54424.13;;;-144.73;100.00
73551;BME280;61816;53.582;10.096;2023-04-10T00:18:35;54420.00;;;-144.73;100.00
73551;BME280;61816;53.582;10.096;2023-04-10T00:21:02;54461.06;;;-144.73;100.00
73551;BME280;61816;53.582;10.096;2023-04-10T00:23:27;54463.13;;;-144.73;100.00
73551;BME280;61816;53.582;10.096;2023-04-10T00:25:56;54424.13;;;-144.73;100.00
73551;BME280;61816;53.582;10.096;2023-04-10T00:28:21;54432.31;;;-144.73;100.00
73551;BME280;61816;53.582;10.096;2023-04-10T00:30:47;54415.91;;;-144.73;100.00
73551;BME280;61816;53.582;10.096;2023-04-10T00:33:13;54397.44;;;-144.73;100.00
73551;BME280;61816;53.582;10.096;2023-04-10T00:35:38;54395.38;;;-144.73;100.00
73551;BME280;61816;53.582;10.096;2023-04-10T00:38:04;54428.22;;;-144.73;100.00
73551;BME280;61816;53.582;10.096;2023-04-10T00:40:29;54415.91;;;-144.73;100.00
73551;BME280;61816;53.582;10.096;2023-04-10T00:42:54;54411.81;;;-144.73;100.00
73551;BME280;61816;53.582;10.096;2023-04-10T00:45:20;54424.13;;;-144.73;100.00
73551;BME280;61816;53.582;10.096;2023-04-10T00:47:45;54411.81;;;-144.73;100.00
73551;BME280;61816;53.582;10.096;2023-04-10T00:50:11;54430.28;;;-144.73;100.00
73551;BME280;61816;53.582;10.096;2023-04-10T00:52:36;54411.81;;;-144.73;100.00
73551;BME280;61816;53.582;10.096;2023-04-10T00:55:03;54432.31;;;-144.73;100.00
73551;BME280;61816;53.582;10.096;2023-04-10T00:57:28;54434.38;;;-144.73;100.00
73551;BME280;61816;53.582;10.096;2023-04-10T00:59:54;54387.19;;;-144.73;100.00
73551;BME280;61816;53.582;10.096;2023-04-10T01:02:20;54444.66;;;-144.73;100.00
73551;BME280;61816;53.582;10.096;2023-04-10T01:04:45;54444.66;;;-144.73;100.00
73551;BME280;61816;53.582;10.096;2023-04-10T01:07:19;54411.81;;;-144.73;100.00
73551;BME280;61816;53.582;10.096;2023-04-10T01:09:52;54411.81;;;-144.73;100.00
73551;BME280;61816;53.582;10.096;2023-04-10T01:13:05;54436.44;;;-144.73;100.00
73551;BME280;61816;53.582;10.096;2023-04-10T01:15:17;54411.81;;;-144.73;100.00
73551;BME280;61816;53.582;10.096;2023-04-10T01:17:58;54448.75;;;-144.73;100.00
73551;BME280;61816;53.582;10.096;2023-04-10T01:20:28;54452.84;;;-144.73;100.00
73551;BME280;61816;53.582;10.096;2023-04-10T01:26:01;54424.13;;;-144.73;100.00
73551;BME280;61816;53.582;10.096;2023-04-10T01:31:36;54436.44;;;-144.73;100.00
73551;BME280;61816;53.582;10.096;2023-04-10T01:34:08;54424.13;;;-144.73;100.00
73551;BME280;61816;53.582;10.096;2023-04-10T01:36:46;54438.50;;;-144.73;100.00
73551;BME280;61816;53.582;10.096;2023-04-10T01:39:13;54395.38;;;-144.73;100.00
73551;BME280;61816;53.582;10.096;2023-04-10T01:41:42;54409.75;;;-144.73;100.00
73551;BME280;61816;53.582;10.096;2023-04-10T01:44:11;54420.00;;;-144.73;100.00
73551;BME280;61816;53.582;10.096;2023-04-10T01:46:39;54428.22;;;-144.73;100.00
73551;BME280;61816;53.582;10.096;2023-04-10T01:49:05;54450.81;;;-144.73;100.00
73551;BME280;61816;53.582;10.096;2023-04-10T01:51:31;54448.75;;;-144.73;100.00
73551;BME280;61816;53.582;10.096;2023-04-10T01:53:59;54415.91;;;-144.73;100.00
73551;BME280;61816;53.582;10.096;2023-04-10T01:56:26;54473.38;;;-144.73;100.00
73551;BME280;61816;53.582;10.096;2023-04-10T01:58:52;54456.97;;;-144.73;100.00
73551;BME280;61816;53.582;10.096;2023-04-10T02:01:21;54444.66;;;-144.73;100.00
73551;BME280;61816;53.582;10.096;2023-04-10T02:03:47;54395.38;;;-144.73;100.00
73551;BME280;61816;53.582;10.096;2023-04-10T02:09:18;54481.59;;;-144.73;100.00
73551;BME280;61816;53.582;10.096;2023-04-10T02:11:55;54469.28;;;-144.73;100.00
73551;BME280;61816;53.582;10.096;2023-04-10T02:14:26;54438.50;;;-144.73;100.00
73551;BME280;61816;53.582;10.096;2023-04-10T02:16:55;54411.81;;;-144.73;100.00
73551;BME280;61816;53.582;10.096;2023-04-10T02:19:24;54461.06;;;-144.73;100.00
73551;BME280;61816;53.582;10.096;2023-04-10T02:21:51;54456.97;;;-144.73;100.00
73551;BME280;61816;53.582;10.096;2023-04-10T02:24:18;54481.59;;;-144.73;100.00
73551;BME280;61816;53.582;10.096;2023-04-10T02:29:10;54415.91;;;-144.73;100.00
73551;BME280;61816;53.582;10.096;2023-04-10T02:31:36;54444.66;;;-144.73;100.00
73551;BME280;61816;53.582;10.096;2023-04-10T02:34:01;54420.00;;;-144.73;100.00
73551;BME280;61816;53.582;10.096;2023-04-10T02:36:27;54436.44;;;-144.73;100.00
73551;BME280;61816;53.582;10.096;2023-04-10T02:38:52;54452.84;;;-144.73;100.00
73551;BME280;61816;53.582;10.096;2023-04-10T02:41:17;54424.13;;;-144.73;100.00
73551;BME280;61816;53.582;10.096;2023-04-10T02:43:43;54428.22;;;-144.73;100.00
73551;BME280;61816;53.582;10.096;2023-04-10T02:46:08;54436.44;;;-144.73;100.00
73551;BME280;61816;53.582;10.096;2023-04-10T02:48:33;54448.75;;;-144.73;100.00
73551;BME280;61816;53.582;10.096;2023-04-10T02:50:58;54448.75;;;-144.73;100.00
73551;BME280;61816;53.582;10.096;2023-04-10T02:53:24;54424.13;;;-144.73;100.00
73551;BME280;61816;53.582;10.096;2023-04-10T02:55:51;54424.13;;;-144.73;100.00
73551;BME280;61816;53.582;10.096;2023-04-10T02:58:17;54454.91;;;-144.73;100.00
73551;BME280;61816;53.582;10.096;2023-04-10T03:00:50;54440.53;;;-144.73;100.00
73551;BME280;61816;53.582;10.096;2023-04-10T03:03:17;54407.69;;;-144.73;100.00
73551;BME280;61816;53.582;10.096;2023-04-10T03:05:43;54452.84;;;-144.73;100.00
73551;BME280;61816;53.582;10.096;2023-04-10T03:08:12;54415.91;;;-144.73;100.00
73551;BME280;61816;53.582;10.096;2023-04-10T03:10:37;54432.31;;;-144.73;100.00
73551;BME280;61816;53.582;10.096;2023-04-10T03:13:02;54452.84;;;-144.73;100.00
73551;BME280;61816;53.582;10.096;2023-04-10T03:15:28;54440.53;;;-144.73;100.00
73551;BME280;61816;53.582;10.096;2023-04-10T03:17:53;54448.75;;;-144.73;100.00
73551;BME280;61816;53.582;10.096;2023-04-10T03:20:18;54428.22;;;-144.73;100.00
73551;BME280;61816;53.582;10.096;2023-04-10T03:22:44;54461.06;;;-144.73;100.00
73551;BME280;61816;53.582;10.096;2023-04-10T03:25:09;54428.22;;;-144.73;100.00
73551;BME280;61816;53.582;10.096;2023-04-10T03:27:34;54422.06;;;-144.73;100.00
73551;BME280;61816;53.582;10.096;2023-04-10T03:30:00;54473.38;;;-144.73;100.00
73551;BME280;61816;53.582;10.096;2023-04-10T03:32:27;54438.50;;;-144.73;100.00
73551;BME280;61816;53.582;10.096;2023-04-10T03:34:56;54442.59;;;-144.73;100.00
73551;BME280;61816;53.582;10.096;2023-04-10T03:37:21;54461.06;;;-144.73;100.00
73551;BME280;61816;53.582;10.096;2023-04-10T03:39:46;54452.84;;;-144.73;100.00
73551;BME280;61816;53.582;10.096;2023-04-10T03:42:12;54452.84;;;-144.73;100.00
73551;BME280;61816;53.582;10.096;2023-04-10T03:44:37;54420.00;;;-144.73;100.00
73551;BME280;61816;53.582;10.096;2023-04-10T03:47:02;54461.06;;;-144.73;100.00
73551;BME280;61816;53.582;10.096;2023-04-10T03:49:28;54467.22;;;-144.73;100.00
73551;BME280;61816;53.582;10.096;2023-04-10T03:51:53;54452.84;;;-144.73;100.00
73551;BME280;61816;53.582;10.096;2023-04-10T03:54:18;54440.53;;;-144.73;100.00
73551;BME280;61816;53.582;10.096;2023-04-10T03:56:44;54415.91;;;-144.73;100.00
73551;BME280;61816;53.582;10.096;2023-04-10T03:59:09;54411.81;;;-144.73;100.00
73551;BME280;61816;53.582;10.096;2023-04-10T04:01:35;54456.97;;;-144.73;100.00
73551;BME280;61816;53.582;10.096;2023-04-10T04:04:00;54407.69;;;-144.73;100.00
73551;BME280;61816;53.582;10.096;2023-04-10T04:06:26;54407.69;;;-144.73;100.00
73551;BME280;61816;53.582;10.096;2023-04-10T04:08:51;54444.66;;;-144.73;100.00
73551;BME280;61816;53.582;10.096;2023-04-10T04:11:16;54444.66;;;-144.73;100.00
73551;BME280;61816;53.582;10.096;2023-04-10T04:13:42;54422.06;;;-144.73;100.00
73551;BME280;61816;53.582;10.096;2023-04-10T04:16:08;54456.97;;;-144.73;100.00
73551;BME280;61816;53.582;10.096;2023-04-10T04:18:33;54420.00;;;-144.73;100.00
73551;BME280;61816;53.582;10.096;2023-04-10T04:20:59;54440.53;;;-144.73;100.00
73551;BME280;61816;53.582;10.096;2023-04-10T04:23:24;54465.16;;;-144.73;100.00
73551;BME280;61816;53.582;10.096;2023-04-10T04:25:50;54411.81;;;-144.73;100.00
73551;BME280;61816;53.582;10.096;2023-04-10T04:28:17;54454.91;;;-144.73;100.00
73551;BME280;61816;53.582;10.096;2023-04-10T04:30:42;54440.53;;;-144.73;100.00
73551;BME280;61816;53.582;10.096;2023-04-10T04:33:07;54444.66;;;-144.73;100.00
73551;BME280;61816;53.582;10.096;2023-04-10T04:35:33;54436.44;;;-144.73;100.00
73551;BME280;61816;53.582;10.096;2023-04-10T04:37:58;54436.44;;;-144.73;100.00
73551;BME280;61816;53.582;10.096;2023-04-10T04:40:23;54452.84;;;-144.73;100.00
73551;BME280;61816;53.582;10.096;2023-04-10T04:42:49;54456.97;;;-144.73;100.00
73551;BME280;61816;53.582;10.096;2023-04-10T04:45:14;54440.53;;;-144.73;100.00
73551;BME280;61816;53.582;10.096;2023-04-10T04:47:40;54440.53;;;-144.73;100.00
73551;BME280;61816;53.582;10.096;2023-04-10T04:50:06;54444.66;;;-144.73;100.00
73551;BME280;61816;53.582;10.096;2023-04-10T04:52:31;54446.69;;;-144.73;100.00
73551;BME280;61816;53.582;10.096;2023-04-10T04:54:59;54436.44;;;-144.73;100.00
73551;BME280;61816;53.582;10.096;2023-04-10T04:57:25;54493.91;;;-144.73;100.00
73551;BME280;61816;53.582;10.096;2023-04-10T04:59:50;54477.47;;;-144.73;100.00
73551;BME280;61816;53.582;10.096;2023-04-10T05:02:16;54428.22;;;-144.73;100.00
73551;BME280;61816;53.582;10.096;2023-04-10T05:04:43;54448.75;;;-144.73;100.00
73551;BME280;61816;53.582;10.096;2023-04-10T05:07:08;54463.13;;;-144.73;100.00
73551;BME280;61816;53.582;10.096;2023-04-10T05:09:34;54465.16;;;-144.73;100.00
73551;BME280;61816;53.582;10.096;2023-04-10T05:11:59;54465.16;;;-144.73;100.00
73551;BME280;61816;53.582;10.096;2023-04-10T05:14:24;54432.31;;;-144.73;100.00
73551;BME280;61816;53.582;10.096;2023-04-10T05:16:50;54444.66;;;-144.73;100.00
73551;BME280;61816;53.582;10.096;2023-04-10T05:19:15;54461.06;;;-144.73;100.00
73551;BME280;61816;53.582;10.096;2023-04-10T05:21:41;54456.97;;;-144.73;100.00
73551;BME280;61816;53.582;10.096;2023-04-10T05:24:06;54420.00;;;-144.73;100.00
73551;BME280;61816;53.582;10.096;2023-04-10T05:26:31;54473.38;;;-144.73;100.00
73551;BME280;61816;53.582;10.096;2023-04-10T05:28:57;54456.97;;;-144.73;100.00
73551;BME280;61816;53.582;10.096;2023-04-10T05:31:22;54452.84;;;-144.73;100.00
73551;BME280;61816;53.582;10.096;2023-04-10T05:33:48;54456.97;;;-144.73;100.00
73551;BME280;61816;53.582;10.096;2023-04-10T05:36:13;54424.13;;;-144.73;100.00
73551;BME280;61816;53.582;10.096;2023-04-10T05:38:38;54459.00;;;-144.73;100.00
73551;BME280;61816;53.582;10.096;2023-04-10T05:41:04;54432.31;;;-144.73;100.00
73551;BME280;61816;53.582;10.096;2023-04-10T05:43:29;54444.66;;;-144.73;100.00
73551;BME280;61816;53.582;10.096;2023-04-10T05:45:54;54440.53;;;-144.73;100.00
73551;BME280;61816;53.582;10.096;2023-04-10T05:48:20;54432.31;;;-144.73;100.00
73551;BME280;61816;53.582;10.096;2023-04-10T05:50:46;54473.38;;;-144.73;100.00
73551;BME280;61816;53.582;10.096;2023-04-10T05:53:12;54461.06;;;-144.73;99.91
73551;BME280;61816;53.582;10.096;2023-04-10T05:55:38;54489.81;;;-144.73;99.76
73551;BME280;61816;53.582;10.096;2023-04-10T05:58:04;54456.97;;;-144.73;99.67
73551;BME280;61816;53.582;10.096;2023-04-10T06:00:29;54465.16;;;-144.73;99.02
73551;BME280;61816;53.582;10.096;2023-04-10T06:02:54;54448.75;;;-144.73;98.03
73551;BME280;61816;53.582;10.096;2023-04-10T06:05:20;54432.31;;;-144.73;97.87
73551;BME280;61816;53.582;10.096;2023-04-10T06:07:45;54424.13;;;-144.73;97.92
73551;BME280;61816;53.582;10.096;2023-04-10T06:10:11;54477.47;;;-144.73;96.78
73551;BME280;61816;53.582;10.096;2023-04-10T06:12:36;54415.91;;;-144.73;96.68
73551;BME280;61816;53.582;10.096;2023-04-10T06:15:01;54415.91;;;-144.73;96.43
73551;BME280;61816;53.582;10.096;2023-04-10T06:17:27;54473.38;;;-144.73;95.84
73551;BME280;61816;53.582;10.096;2023-04-10T06:19:52;54432.31;;;-144.73;95.56
73551;BME280;61816;53.582;10.096;2023-04-10T06:22:18;54461.06;;;-144.73;95.05
73551;BME280;61816;53.582;10.096;2023-04-10T06:24:43;54395.38;;;-144.73;95.17
73551;BME280;61816;53.582;10.096;2023-04-10T06:27:08;54395.38;;;-144.73;94.99
73551;BME280;61816;53.582;10.096;2023-04-10T06:29:34;54456.97;;;-144.73;94.34
73551;BME280;61816;53.582;10.096;2023-04-10T06:31:59;54473.38;;;-144.73;93.85
73551;BME280;61816;53.582;10.096;2023-04-10T06:34:25;54465.16;;;-144.73;93.50
73551;BME280;61816;53.582;10.096;2023-04-10T06:36:50;54456.97;;;-144.73;92.51
73551;BME280;61816;53.582;10.096;2023-04-10T06:39:16;54440.53;;;-144.73;92.14
73551;BME280;61816;53.582;10.096;2023-04-10T06:41:42;54469.28;;;-144.73;91.34
73551;BME280;61816;53.582;10.096;2023-04-10T06:44:07;54440.53;;;-144.73;91.58
73551;BME280;61816;53.582;10.096;2023-04-10T06:46:33;54456.97;;;-144.73;91.50
73551;BME280;61816;53.582;10.096;2023-04-10T06:48:58;54444.66;;;-144.73;91.00
73551;BME280;61816;53.582;10.096;2023-04-10T06:51:23;54428.22;;;-144.73;90.52
73551;BME280;61816;53.582;10.096;2023-04-10T06:53:50;54465.16;;;-144.73;89.79
73551;BME280;61816;53.582;10.096;2023-04-10T06:56:15;54436.44;;;-144.73;89.21
73551;BME280;61816;53.582;10.096;2023-04-10T06:58:41;54415.91;;;-144.73;89.50
73551;BME280;61816;53.582;10.096;2023-04-10T07:01:06;54407.69;;;-144.73;88.66
73551;BME280;61816;53.582;10.096;2023-04-10T07:03:32;54411.81;;;-144.73;88.54
73551;BME280;61816;53.582;10.096;2023-04-10T07:05:58;54446.69;;;-144.73;88.10
73551;BME280;61816;53.582;10.096;2023-04-10T07:08:24;54448.75;;;-144.73;87.22
73551;BME280;61816;53.582;10.096;2023-04-10T07:10:49;54415.91;;;-144.73;87.61
73551;BME280;61816;53.582;10.096;2023-04-10T07:13:15;54440.53;;;-144.73;87.45
73551;BME280;61816;53.582;10.096;2023-04-10T07:15:41;54469.28;;;-144.73;86.71
73551;BME280;61816;53.582;10.096;2023-04-10T07:18:06;54448.75;;;-144.73;86.96
73551;BME280;61816;53.582;10.096;2023-04-10T07:20:32;54426.16;;;-144.73;86.91
73551;BME280;61816;53.582;10.096;2023-04-10T07:22:57;54434.38;;;-144.73;87.13
73551;BME280;61816;53.582;10.096;2023-04-10T07:25:22;54461.06;;;-144.73;86.93
73551;BME280;61816;53.582;10.096;2023-04-10T07:27:48;54459.00;;;-144.73;86.65
73551;BME280;61816;53.582;10.096;2023-04-10T07:30:13;54456.97;;;-144.73;86.53
73551;BME280;61816;53.582;10.096;2023-04-10T07:32:39;54426.16;;;-144.73;86.35
73551;BME280;61816;53.582;10.096;2023-04-10T07:35:06;54465.16;;;-144.73;85.70
73551;BME280;61816;53.582;10.096;2023-04-10T07:37:32;54432.31;;;-144.73;85.13
73551;BME280;61816;53.582;10.096;2023-04-10T07:39:57;54446.69;;;-144.73;85.15
73551;BME280;61816;53.582;10.096;2023-04-10T07:42:23;54448.75;;;-144.73;84.25
73551;BME280;61816;53.582;10.096;2023-04-10T07:44:48;54428.22;;;-144.73;83.40
73551;BME280;61816;53.582;10.096;2023-04-10T07:47:14;54440.53;;;-144.73;83.61
73551;BME280;61816;53.582;10.096;2023-04-10T07:49:39;54424.13;;;-144.73;83.23
73551;BME280;61816;53.582;10.096;2023-04-10T07:52:05;54444.66;;;-144.73;82.01
73551;BME280;61816;53.582;10.096;2023-04-10T07:54:31;54407.69;;;-144.73;81.08
73551;BME280;61816;53.582;10.096;2023-04-10T07:56:58;54428.22;;;-144.73;81.14
73551;BME280;61816;53.582;10.096;2023-04-10T07:59:23;54407.69;;;-144.73;79.49
73551;BME280;61816;53.582;10.096;2023-04-10T08:01:48;54448.75;;;-144.73;78.78
73551;BME280;61816;53.582;10.096;2023-04-10T08:04:14;54456.97;;;-144.73;79.82
73551;BME280;61816;53.582;10.096;2023-04-10T08:06:40;54426.16;;;-144.73;77.96
73551;BME280;61816;53.582;10.096;2023-04-10T08:09:05;54428.22;;;-144.73;77.11
73551;BME280;61816;53.582;10.096;2023-04-10T08:11:32;54411.81;;;-144.73;76.54
73551;BME280;61816;53.582;10.096;2023-04-10T08:14:00;54452.84;;;-144.73;75.71
73551;BME280;61816;53.582;10.096;2023-04-10T08:16:28;54440.53;;;-144.73;74.94
73551;BME280;61816;53.582;10.096;2023-04-10T08:18:54;54407.69;;;-144.73;75.37
73551;BME280;61816;53.582;10.096;2023-04-10T08:21:22;54452.84;;;-144.73;75.31
73551;BME280;61816;53.582;10.096;2023-04-10T08:23:52;54436.44;;;-144.73;74.55
73551;BME280;61816;53.582;10.096;2023-04-10T08:26:18;54407.69;;;-144.73;74.35
73551;BME280;61816;53.582;10.096;2023-04-10T08:28:46;54383.06;;;-144.73;73.64
73551;BME280;61816;53.582;10.096;2023-04-10T08:31:13;54399.50;;;-144.73;72.40
73551;BME280;61816;53.582;10.096;2023-04-10T08:33:39;54426.16;;;-144.73;72.14
73551;BME280;61816;53.582;10.096;2023-04-10T08:36:05;54424.13;;;-144.73;71.47
73551;BME280;61816;53.582;10.096;2023-04-10T08:38:30;54422.06;;;-144.73;71.25
73551;BME280;61816;53.582;10.096;2023-04-10T08:40:56;54415.91;;;-144.73;69.67
73551;BME280;61816;53.582;10.096;2023-04-10T08:43:22;54428.22;;;-144.73;70.83
73551;BME280;61816;53.582;10.096;2023-04-10T08:45:47;54424.13;;;-144.73;70.86
73551;BME280;61816;53.582;10.096;2023-04-10T08:48:15;54424.13;;;-144.73;70.13
73551;BME280;61816;53.582;10.096;2023-04-10T08:50:44;54434.38;;;-144.73;68.79
73551;BME280;61816;53.582;10.096;2023-04-10T08:53:12;54407.69;;;-144.73;68.88
73551;BME280;61816;53.582;10.096;2023-04-10T08:55:39;54395.38;;;-144.73;68.40
73551;BME280;61816;53.582;10.096;2023-04-10T08:58:05;54428.22;;;-144.73;67.39
73551;BME280;61816;53.582;10.096;2023-04-10T09:00:35;54395.38;;;-144.73;66.59
73551;BME280;61816;53.582;10.096;2023-04-10T09:03:13;54448.75;;;-144.73;66.75
73551;BME280;61816;53.582;10.096;2023-04-10T09:05:39;54426.16;;;-144.73;65.12
73551;BME280;61816;53.582;10.096;2023-04-10T09:08:07;54428.22;;;-144.73;64.97
73551;BME280;61816;53.582;10.096;2023-04-10T09:10:33;54444.66;;;-144.73;65.09
73551;BME280;61816;53.582;10.096;2023-04-10T09:12:59;54395.38;;;-144.73;63.59
73551;BME280;61816;53.582;10.096;2023-04-10T09:15:25;54424.13;;;-144.73;62.08
73551;BME280;61816;53.582;10.096;2023-04-10T09:18:00;54354.34;;;-144.73;61.81
73551;BME280;61816;53.582;10.096;2023-04-10T09:20:31;54407.69;;;-144.73;62.37
73551;BME280;61816;53.582;10.096;2023-04-10T09:22:56;54415.91;;;-144.73;59.72
73551;BME280;61816;53.582;10.096;2023-04-10T09:25:37;54378.97;;;-144.73;60.32
73551;BME280;61816;53.582;10.096;2023-04-10T09:28:07;54358.44;;;-144.73;60.55
73551;BME280;61816;53.582;10.096;2023-04-10T09:30:37;54411.81;;;-144.73;59.69
73551;BME280;61816;53.582;10.096;2023-04-10T09:33:21;54438.50;;;-144.73;58.25
73551;BME280;61816;53.582;10.096;2023-04-10T09:35:48;54432.31;;;-144.73;58.21
73551;BME280;61816;53.582;10.096;2023-04-10T09:38:19;54346.13;;;-144.73;58.51
73551;BME280;61816;53.582;10.096;2023-04-10T09:40:45;54393.34;;;-144.73;57.50
73551;BME280;61816;53.582;10.096;2023-04-10T09:43:25;54378.97;;;-144.73;57.42
73551;BME280;61816;53.582;10.096;2023-04-10T09:45:55;54333.81;;;-144.73;57.44
73551;BME280;61816;53.582;10.096;2023-04-10T09:48:22;54407.69;;;-144.73;56.80
73551;BME280;61816;53.582;10.096;2023-04-10T09:50:48;54415.91;;;-144.73;55.77
73551;BME280;61816;53.582;10.096;2023-04-10T09:53:17;54417.97;;;-144.73;56.01
73551;BME280;61816;53.582;10.096;2023-04-10T09:55:45;54407.69;;;-144.73;56.31
73551;BME280;61816;53.582;10.096;2023-04-10T09:58:11;54362.53;;;-144.73;56.23
73551;BME280;61816;53.582;10.096;2023-04-10T10:00:41;54391.28;;;-144.73;54.91
73551;BME280;61816;53.582;10.096;2023-04-10T10:03:10;54378.97;;;-144.73;55.04
73551;BME280;61816;53.582;10.096;2023-04-10T10:05:38;54395.38;;;-144.73;54.07
73551;BME280;61816;53.582;10.096;2023-04-10T10:08:04;54383.06;;;-144.73;53.85
73551;BME280;61816;53.582;10.096;2023-04-10T10:10:30;54383.06;;;-144.73;52.98
73551;BME280;61816;53.582;10.096;2023-04-10T10:12:59;54391.28;;;-144.73;51.52
73551;BME280;61816;53.582;10.096;2023-04-10T10:16:02;54374.84;;;-144.73;50.28
73551;BME280;61816;53.582;10.096;2023-04-10T10:18:45;54362.53;;;-144.73;48.30
73551;BME280;61816;53.582;10.096;2023-04-10T10:21:12;54454.91;;;-144.73;47.86
73551;BME280;61816;53.582;10.096;2023-04-10T10:23:39;54430.28;;;-144.73;47.98
73551;BME280;61816;53.582;10.096;2023-04-10T10:26:05;54387.19;;;-144.73;47.72
73551;BME280;61816;53.582;10.096;2023-04-10T10:28:34;54387.19;;;-144.73;48.31
73551;BME280;61816;53.582;10.096;2023-04-10T10:31:02;54415.91;;;-144.73;48.30
73551;BME280;61816;53.582;10.096;2023-04-10T10:33:28;54411.81;;;-144.73;48.78
73551;BME280;61816;53.582;10.096;2023-04-10T10:36:02;54370.75;;;-144.73;48.35
73551;BME280;61816;53.582;10.096;2023-04-10T10:38:27;54430.28;;;-144.73;48.22
73551;BME280;61816;53.582;10.096;2023-04-10T10:41:01;54407.69;;;-144.73;47.22
73551;BME280;61816;53.582;10.096;2023-04-10T10:46:15;54362.53;;;-144.73;45.91
73551;BME280;61816;53.582;10.096;2023-04-10T10:49:12;54360.50;;;-144.73;44.14
73551;BME280;61816;53.582;10.096;2023-04-10T10:51:48;54378.97;;;-144.73;43.50
73551;BME280;61816;53.582;10.096;2023-04-10T10:54:33;54378.97;;;-144.73;41.58
73551;BME280;61816;53.582;10.096;2023-04-10T10:57:00;54374.84;;;-144.73;41.79
73551;BME280;61816;53.582;10.096;2023-04-10T11:02:17;54399.50;;;-144.73;42.82
73551;BME280;61816;53.582;10.096;2023-04-10T11:04:45;54383.06;;;-144.73;42.71
73551;BME280;61816;53.582;10.096;2023-04-10T11:07:11;54385.13;;;-144.73;41.89
73551;BME280;61816;53.582;10.096;2023-04-10T11:09:46;54407.69;;;-144.73;40.99
73551;BME280;61816;53.582;10.096;2023-04-10T11:12:12;54389.22;;;-144.73;40.72
73551;BME280;61816;53.582;10.096;2023-04-10T11:14:39;54395.38;;;-144.73;41.42
73551;BME280;61816;53.582;10.096;2023-04-10T11:17:06;54376.91;;;-144.73;41.25
73551;BME280;61816;53.582;10.096;2023-04-10T11:20:00;54378.97;;;-144.73;40.91
73551;BME280;61816;53.582;10.096;2023-04-10T11:22:26;54391.28;;;-144.73;40.20
73551;BME280;61816;53.582;10.096;2023-04-10T11:24:53;54333.81;;;-144.73;40.64
73551;BME280;61816;53.582;10.096;2023-04-10T11:27:41;54407.69;;;-144.73;39.50
73551;BME280;61816;53.582;10.096;2023-04-10T11:30:28;54378.97;;;-144.73;39.22
73551;BME280;61816;53.582;10.096;2023-04-10T11:32:53;54333.81;;;-144.73;39.10
73551;BME280;61816;53.582;10.096;2023-04-10T11:35:19;54368.69;;;-144.73;39.27
73551;BME280;61816;53.582;10.096;2023-04-10T11:37:45;54342.03;;;-144.73;38.43
73551;BME280;61816;53.582;10.096;2023-04-10T11:40:11;54370.75;;;-144.73;37.48
73551;BME280;61816;53.582;10.096;2023-04-10T11:42:36;54354.34;;;-144.73;37.44
73551;BME280;61816;53.582;10.096;2023-04-10T11:45:27;54346.13;;;-144.73;36.90
73551;BME280;61816;53.582;10.096;2023-04-10T11:47:53;54331.75;;;-144.73;36.59
73551;BME280;61816;53.582;10.096;2023-04-10T11:50:19;54333.81;;;-144.73;35.39
73551;BME280;61816;53.582;10.096;2023-04-10T11:52:49;54346.13;;;-144.73;35.48
73551;BME280;61816;53.582;10.096;2023-04-10T11:55:15;54321.50;;;-144.73;35.21
73551;BME280;61816;53.582;10.096;2023-04-10T11:57:41;54370.75;;;-144.73;35.37
73551;BME280;61816;53.582;10.096;2023-04-10T12:00:07;54374.84;;;-144.73;35.81
73551;BME280;61816;53.582;10.096;2023-04-10T12:02:33;54350.22;;;-144.73;35.82
73551;BME280;61816;53.582;10.096;2023-04-10T12:04:58;54321.50;;;-144.73;36.16
73551;BME280;61816;53.582;10.096;2023-04-10T12:07:24;54337.91;;;-144.73;35.55
73551;BME280;61816;53.582;10.096;2023-04-10T12:09:59;54364.59;;;-144.73;35.27
73551;BME280;61816;53.582;10.096;2023-04-10T12:12:35;54290.72;;;-144.73;35.63
73551;BME280;61816;53.582;10.096;2023-04-10T12:15:02;54333.81;;;-144.73;35.43
73551;BME280;61816;53.582;10.096;2023-04-10T12:17:28;54342.03;;;-144.73;35.26
73551;BME280;61816;53.582;10.096;2023-04-10T12:19:53;54366.66;;;-144.73;34.10
73551;BME280;61816;53.582;10.096;2023-04-10T12:22:19;54354.34;;;-144.73;33.73
73551;BME280;61816;53.582;10.096;2023-04-10T12:24:46;54337.91;;;-144.73;33.85
73551;BME280;61816;53.582;10.096;2023-04-10T12:29:43;54319.44;;;-144.73;33.75
73551;BME280;61816;53.582;10.096;2023-04-10T12:32:08;54362.53;;;-144.73;34.05
73551;BME280;61816;53.582;10.096;2023-04-10T12:34:37;54354.34;;;-144.73;33.96
73551;BME280;61816;53.582;10.096;2023-04-10T12:37:03;54354.34;;;-144.73;33.89
73551;BME280;61816;53.582;10.096;2023-04-10T12:39:29;54372.81;;;-144.73;34.43
73551;BME280;61816;53.582;10.096;2023-04-10T12:42:10;54366.66;;;-144.73;34.16
73551;BME280;61816;53.582;10.096;2023-04-10T12:44:58;54321.50;;;-144.73;34.28
73551;BME280;61816;53.582;10.096;2023-04-10T12:47:25;54346.13;;;-144.73;34.58